createdAt,value
2023-04-20T00:02:26.313Z,66.19
2023-04-20T00:04:54.613Z,65.55
2023-04-20T00:07:24.772Z,66.23
2023-04-20T00:09:54.043Z,67.06
2023-04-20T00:12:21.939Z,66.41
2023-04-20T00:14:49.991Z,67.16
2023-04-20T00:17:18.022Z,66.16
2023-04-20T00:19:46.340Z,65.37
2023-04-20T00:22:14.439Z,65.62
2023-04-20T00:24:45.022Z,65.66
2023-04-20T00:27:14.239Z,64.97
2023-04-20T00:29:42.013Z,66.29
2023-04-20T00:32:10.033Z,66.49
2023-04-20T00:34:37.961Z,67.02
2023-04-20T00:37:06.227Z,69.53
2023-04-20T00:39:34.317Z,68.17
2023-04-20T00:42:08.077Z,69.38
2023-04-20T00:44:37.375Z,70.69
2023-04-20T00:47:05.327Z,67.89
2023-04-20T00:49:34.630Z,67.83
2023-04-20T00:52:02.631Z,66.88
2023-04-20T00:54:33.602Z,69.91
2023-04-20T00:57:02.490Z,69.09
2023-04-20T00:59:30.435Z,68.91
2023-04-20T01:02:00.015Z,67.71
2023-04-20T01:04:28.309Z,66.55
2023-04-20T01:06:57.075Z,67.26
2023-04-20T01:09:27.641Z,66.63
2023-04-20T01:11:55.761Z,66.57
2023-04-20T01:14:23.703Z,66.49
2023-04-20T01:16:52.060Z,66.12
2023-04-20T01:19:21.611Z,65.67
2023-04-20T01:21:49.506Z,65.02
2023-04-20T01:24:18.712Z,69.97
2023-04-20T01:26:46.653Z,71.83
2023-04-20T01:29:14.688Z,69.22
2023-04-20T01:31:43.995Z,67.26
2023-04-20T01:34:12.356Z,67.83
2023-04-20T01:36:40.333Z,67.92
2023-04-20T01:39:09.178Z,67.55
2023-04-20T01:41:38.472Z,66.60
2023-04-20T01:44:06.754Z,71.62
2023-04-20T01:46:37.773Z,69.93
2023-04-20T01:49:05.995Z,69.48
2023-04-20T01:51:34.062Z,67.42
2023-04-20T01:54:02.500Z,68.86
2023-04-20T01:56:30.710Z,67.53
2023-04-20T01:59:02.738Z,67.70
2023-04-20T02:01:30.660Z,66.72
2023-04-20T02:03:59.298Z,69.82
2023-04-20T02:06:27.382Z,68.14
2023-04-20T02:08:55.484Z,71.27
2023-04-20T02:11:23.500Z,72.94
2023-04-20T02:13:51.619Z,71.88
2023-04-20T02:16:21.855Z,69.63
2023-04-20T02:18:49.837Z,68.37
2023-04-20T02:21:17.913Z,68.13
2023-04-20T02:23:45.988Z,68.94
2023-04-20T02:26:13.920Z,71.20
2023-04-20T02:28:41.920Z,70.66
2023-04-20T02:31:12.192Z,70.21
2023-04-20T02:33:41.735Z,69.83
2023-04-20T02:36:10.429Z,69.16
2023-04-20T02:38:40.789Z,69.55
2023-04-20T02:41:08.842Z,72.79
2023-04-20T02:43:36.950Z,73.70
2023-04-20T02:46:06.074Z,73.28
2023-04-20T02:48:34.033Z,71.37
2023-04-20T02:51:03.752Z,69.63
2023-04-20T02:53:40.733Z,69.00
2023-04-20T02:56:34.964Z,69.02
2023-04-20T02:59:06.823Z,68.00
2023-04-20T03:01:43.031Z,67.29
2023-04-20T03:04:16.423Z,68.34
2023-04-20T03:06:54.171Z,69.37
2023-04-20T03:09:28.257Z,71.90
2023-04-20T03:11:56.332Z,70.96
2023-04-20T03:14:59.465Z,72.54
2023-04-20T03:17:43.464Z,74.84
2023-04-20T03:20:13.478Z,73.71
2023-04-20T03:22:42.854Z,71.51
2023-04-20T03:25:11.900Z,70.05
2023-04-20T03:27:58.414Z,70.49
2023-04-20T03:30:27.033Z,73.16
2023-04-20T03:33:04.352Z,74.63
2023-04-20T03:35:32.302Z,73.65
2023-04-20T03:38:02.490Z,71.72
2023-04-20T03:40:30.403Z,72.83
2023-04-20T03:42:58.395Z,71.45
2023-04-20T03:45:26.443Z,71.68
2023-04-20T03:47:54.496Z,72.78
2023-04-20T03:50:23.347Z,72.01
2023-04-20T03:52:51.292Z,71.21
2023-04-20T03:55:21.094Z,71.00
2023-04-20T03:57:55.916Z,71.09
2023-04-20T04:00:25.730Z,70.81
2023-04-20T04:03:03.792Z,69.36
2023-04-20T04:05:34.711Z,71.80
2023-04-20T04:08:04.346Z,74.59
2023-04-20T04:10:35.012Z,75.17
2023-04-20T04:13:03.321Z,74.02
2023-04-20T04:15:32.617Z,73.35
2023-04-20T04:18:05.721Z,71.60
2023-04-20T04:20:35.458Z,70.28
2023-04-20T04:23:03.728Z,69.79
2023-04-20T04:25:40.711Z,68.91
2023-04-20T04:28:10.680Z,68.68
2023-04-20T04:30:44.507Z,69.80
2023-04-20T04:33:14.808Z,69.17
2023-04-20T04:35:45.853Z,71.61
2023-04-20T04:38:14.945Z,72.04
2023-04-20T04:40:47.744Z,69.88
2023-04-20T04:43:16.109Z,72.48
2023-04-20T04:45:51.934Z,72.99
2023-04-20T04:48:20.635Z,72.86
2023-04-20T04:50:48.542Z,72.80
2023-04-20T04:53:16.577Z,71.78
2023-04-20T04:55:46.934Z,73.19
2023-04-20T04:58:16.537Z,72.83
2023-04-20T05:00:44.529Z,71.71
2023-04-20T05:03:13.950Z,70.53
2023-04-20T05:05:41.984Z,70.47
2023-04-20T05:08:10.009Z,69.57
2023-04-20T05:10:37.897Z,69.95
2023-04-20T05:13:05.942Z,72.72
2023-04-20T05:15:35.357Z,71.80
2023-04-20T05:18:03.404Z,70.76
2023-04-20T05:20:31.459Z,71.08
2023-04-20T05:22:59.493Z,70.69
2023-04-20T05:25:27.597Z,70.50
2023-04-20T05:27:57.904Z,70.54
2023-04-20T05:30:27.106Z,70.58
2023-04-20T05:32:56.440Z,69.78
2023-04-20T05:35:24.407Z,69.51
2023-04-20T05:37:52.838Z,68.93
2023-04-20T05:40:20.720Z,68.28
2023-04-20T05:42:48.547Z,68.03
2023-04-20T05:45:16.615Z,67.70
2023-04-20T05:47:54.002Z,67.01
2023-04-20T05:50:24.302Z,66.96
2023-04-20T05:52:52.298Z,66.37
2023-04-20T05:55:22.642Z,66.05
2023-04-20T05:57:52.412Z,67.74
2023-04-20T06:00:23.124Z,67.91
2023-04-20T06:02:54.481Z,68.61
2023-04-20T06:05:23.982Z,69.95
2023-04-20T06:07:51.923Z,68.49
2023-04-20T06:10:19.857Z,70.26
2023-04-20T06:12:48.176Z,71.81
2023-04-20T06:15:16.510Z,69.88
2023-04-20T06:17:48.478Z,70.39
2023-04-20T06:20:17.457Z,73.67
2023-04-20T06:22:47.086Z,72.31
2023-04-20T06:25:16.117Z,73.36
2023-04-20T06:27:44.070Z,72.41
2023-04-20T06:30:13.445Z,73.77
2023-04-20T06:32:41.603Z,71.79
2023-04-20T06:35:09.986Z,69.45
2023-04-20T06:37:40.716Z,67.23
2023-04-20T06:40:10.471Z,65.40
2023-04-20T06:42:38.495Z,65.21
2023-04-20T06:45:07.589Z,64.25
2023-04-20T06:47:36.104Z,62.46
2023-04-20T06:50:09.647Z,62.10
2023-04-20T06:52:38.651Z,61.64
2023-04-20T06:55:07.134Z,63.61
2023-04-20T06:57:38.387Z,63.68
2023-04-20T07:00:08.943Z,66.02
2023-04-20T07:02:43.914Z,64.06
2023-04-20T07:05:12.387Z,63.65
2023-04-20T07:07:43.282Z,63.13
2023-04-20T07:10:14.079Z,61.96
2023-04-20T07:12:44.467Z,65.28
2023-04-20T07:15:12.738Z,64.38
2023-04-20T07:17:40.868Z,66.01
2023-04-20T07:20:10.061Z,65.77
2023-04-20T07:22:39.548Z,64.70
2023-04-20T07:25:09.312Z,62.66
2023-04-20T07:27:38.661Z,62.45
2023-04-20T07:30:10.642Z,64.36
2023-04-20T07:32:40.836Z,62.82
2023-04-20T07:35:10.075Z,60.38
2023-04-20T07:37:38.057Z,60.06
2023-04-20T07:40:07.344Z,58.58
2023-04-20T07:42:37.145Z,57.98
2023-04-20T07:45:05.863Z,57.91
2023-04-20T07:47:35.954Z,62.25
2023-04-20T07:50:04.208Z,61.76
2023-04-20T07:52:32.413Z,65.02
2023-04-20T07:55:00.713Z,59.92
2023-04-20T07:57:30.170Z,60.58
2023-04-20T07:59:58.445Z,61.15
2023-04-20T08:02:26.448Z,63.36
2023-04-20T08:04:56.047Z,62.23
2023-04-20T08:07:24.140Z,62.06
2023-04-20T08:09:52.062Z,56.56
2023-04-20T08:12:20.032Z,57.76
2023-04-20T08:14:47.886Z,55.34
2023-04-20T08:17:18.136Z,55.13
2023-04-20T08:19:46.353Z,56.00
2023-04-20T08:22:15.778Z,56.13
2023-04-20T08:24:43.823Z,56.06
2023-04-20T08:27:11.746Z,63.70
2023-04-20T08:29:40.250Z,60.86
2023-04-20T08:32:09.719Z,58.62
2023-04-20T08:34:38.018Z,57.72
2023-04-20T08:37:06.296Z,58.16
2023-04-20T08:39:36.543Z,59.56
2023-04-20T08:42:07.347Z,58.00
2023-04-20T08:44:35.325Z,57.20
2023-04-20T08:47:04.454Z,59.92
2023-04-20T08:49:33.031Z,60.33
2023-04-20T08:52:01.157Z,63.44
2023-04-20T08:54:29.162Z,61.02
2023-04-20T08:56:59.798Z,61.22
2023-04-20T08:59:30.835Z,58.79
2023-04-20T09:02:09.449Z,58.82
2023-04-20T09:04:37.706Z,59.07
2023-04-20T09:07:06.034Z,58.28
2023-04-20T09:09:34.133Z,60.31
2023-04-20T09:12:04.986Z,59.67
2023-04-20T09:14:43.978Z,62.49
2023-04-20T09:17:14.585Z,64.01
2023-04-20T09:19:45.608Z,63.54
2023-04-20T09:22:13.858Z,62.63
2023-04-20T09:24:42.698Z,62.46
2023-04-20T09:27:19.087Z,62.80
2023-04-20T09:29:58.493Z,62.84
2023-04-20T09:32:29.317Z,62.78
2023-04-20T09:34:57.736Z,61.95
2023-04-20T09:37:26.572Z,61.84
2023-04-20T09:40:01.187Z,61.54
2023-04-20T09:42:33.851Z,61.80
2023-04-20T09:45:03.729Z,61.46
2023-04-20T09:47:32.180Z,61.48
2023-04-20T09:50:14.127Z,61.77
2023-04-20T09:52:50.960Z,61.03
2023-04-20T09:55:21.189Z,61.83
2023-04-20T09:57:52.862Z,62.06
2023-04-20T10:00:22.504Z,61.88
2023-04-20T10:02:50.652Z,60.70
2023-04-20T10:05:19.141Z,61.49
2023-04-20T10:07:47.187Z,61.80
2023-04-20T10:10:17.051Z,62.74
2023-04-20T10:12:49.576Z,61.05
2023-04-20T10:15:21.818Z,61.74
2023-04-20T10:17:50.277Z,61.57
2023-04-20T10:20:23.150Z,61.86
2023-04-20T10:22:52.424Z,60.53
2023-04-20T10:25:22.239Z,60.39
2023-04-20T10:27:58.192Z,63.70
2023-04-20T10:30:28.923Z,64.05
2023-04-20T10:33:05.302Z,62.35
2023-04-20T10:35:45.785Z,61.97
2023-04-20T10:38:14.240Z,62.31
2023-04-20T10:40:42.530Z,63.57
2023-04-20T10:43:21.338Z,64.03
2023-04-20T10:45:51.202Z,66.76
2023-04-20T10:48:19.240Z,67.66
2023-04-20T10:50:47.405Z,67.83
2023-04-20T10:53:21.565Z,67.47
2023-04-20T10:55:59.895Z,69.84
2023-04-20T10:58:27.996Z,70.22
2023-04-20T11:01:01.850Z,72.63
2023-04-20T11:03:31.301Z,75.46
2023-04-20T11:06:01.553Z,73.59
2023-04-20T11:08:40.537Z,75.55
2023-04-20T11:11:19.753Z,76.09
2023-04-20T11:13:48.270Z,74.53
2023-04-20T11:16:19.864Z,75.09
2023-04-20T11:18:52.728Z,74.53
2023-04-20T11:21:21.311Z,74.50
2023-04-20T11:23:50.739Z,74.75
2023-04-20T11:26:19.096Z,77.30
2023-04-20T11:28:56.030Z,78.26
2023-04-20T11:31:27.993Z,77.93
2023-04-20T11:33:56.145Z,78.28
2023-04-20T11:36:26.627Z,78.37
2023-04-20T11:38:55.789Z,78.55
2023-04-20T11:41:23.815Z,76.75
2023-04-20T11:43:52.110Z,75.71
2023-04-20T11:46:22.727Z,76.99
2023-04-20T11:48:51.925Z,75.74
2023-04-20T11:51:19.872Z,75.34
2023-04-20T11:53:48.127Z,73.27
2023-04-20T11:56:16.547Z,72.25
2023-04-20T11:58:44.578Z,72.44
2023-04-20T12:01:13.258Z,72.44
2023-04-20T12:03:41.629Z,72.29
2023-04-20T12:06:11.296Z,71.44
2023-04-20T12:08:39.404Z,73.31
2023-04-20T12:11:07.641Z,74.16
2023-04-20T12:13:37.878Z,71.90
2023-04-20T12:16:06.639Z,71.39
2023-04-20T12:18:34.618Z,72.21
2023-04-20T12:21:02.711Z,73.12
2023-04-20T12:23:33.133Z,75.64
2023-04-20T12:26:01.405Z,75.09
2023-04-20T12:28:29.899Z,74.00
2023-04-20T12:30:58.281Z,75.09
2023-04-20T12:33:26.396Z,74.18
2023-04-20T12:35:54.748Z,73.85
2023-04-20T12:38:23.982Z,73.13
2023-04-20T12:40:55.711Z,72.63
2023-04-20T12:43:25.997Z,72.69
2023-04-20T12:46:03.650Z,72.14
2023-04-20T12:48:34.191Z,73.18
2023-04-20T12:51:03.802Z,72.80
2023-04-20T12:53:33.042Z,71.76
2023-04-20T12:56:03.579Z,71.06
2023-04-20T12:58:33.410Z,72.04
2023-04-20T13:01:02.832Z,71.50
2023-04-20T13:03:31.361Z,71.43
2023-04-20T13:06:00.599Z,71.13
2023-04-20T13:08:33.346Z,71.00
2023-04-20T13:11:29.729Z,70.18
2023-04-20T13:14:03.994Z,71.01
2023-04-20T13:16:35.393Z,70.76
2023-04-20T13:19:05.283Z,70.62
2023-04-20T13:21:34.956Z,70.76
2023-04-20T13:24:05.082Z,71.26
2023-04-20T13:26:35.203Z,70.83
2023-04-20T13:29:04.919Z,71.72
2023-04-20T13:31:35.838Z,72.02
2023-04-20T13:34:06.095Z,70.71
2023-04-20T13:36:36.174Z,70.95
2023-04-20T13:39:05.333Z,71.23
2023-04-20T13:41:37.315Z,69.36
2023-04-20T13:44:16.136Z,69.92
2023-04-20T13:46:45.000Z,68.64
2023-04-20T13:49:13.974Z,69.39
2023-04-20T13:51:43.500Z,69.78
2023-04-20T13:54:17.466Z,70.03
2023-04-20T13:57:10.911Z,69.55
2023-04-20T13:59:59.156Z,70.91
2023-04-20T14:02:29.318Z,69.86
2023-04-20T14:04:59.721Z,70.94
2023-04-20T14:07:29.435Z,70.41
2023-04-20T14:10:09.681Z,69.32
2023-04-20T14:12:42.584Z,69.67
2023-04-20T14:15:21.594Z,70.57
2023-04-20T14:18:00.722Z,70.66
2023-04-20T14:20:33.377Z,70.96
2023-04-20T14:23:07.396Z,70.10
2023-04-20T14:25:41.506Z,70.46
2023-04-20T14:28:33.453Z,70.20
2023-04-20T14:31:05.607Z,70.01
2023-04-20T14:33:34.723Z,71.08
2023-04-20T14:36:08.006Z,71.49
2023-04-20T14:38:38.303Z,71.89
2023-04-20T14:41:06.596Z,71.39
2023-04-20T14:43:36.085Z,72.25
2023-04-20T14:46:06.890Z,72.73
2023-04-20T14:48:35.666Z,74.05
2023-04-20T14:51:03.637Z,74.24
2023-04-20T14:53:32.677Z,74.54
2023-04-20T14:56:01.155Z,74.52
2023-04-20T14:58:29.200Z,75.27
2023-04-20T15:00:59.118Z,76.80
2023-04-20T15:03:28.040Z,77.50
2023-04-20T15:06:01.406Z,78.49
2023-04-20T15:08:30.687Z,79.72
2023-04-20T15:10:59.769Z,79.53
2023-04-20T15:13:28.629Z,79.42
2023-04-20T15:15:59.529Z,79.59
2023-04-20T15:18:28.548Z,79.65
2023-04-20T15:20:57.147Z,80.08
2023-04-20T15:23:25.204Z,81.96
2023-04-20T15:25:55.176Z,83.55
2023-04-20T15:28:28.090Z,83.84
2023-04-20T15:30:59.054Z,84.41
2023-04-20T15:33:28.697Z,82.93
2023-04-20T15:35:56.802Z,81.98
2023-04-20T15:38:25.094Z,82.52
2023-04-20T15:40:55.676Z,85.32
2023-04-20T15:43:23.612Z,83.26
2023-04-20T15:45:51.958Z,82.01
2023-04-20T15:48:21.477Z,82.35
2023-04-20T15:50:52.877Z,82.14
2023-04-20T15:53:22.194Z,83.72
2023-04-20T15:55:50.727Z,83.51
2023-04-20T15:58:19.007Z,84.10
2023-04-20T16:00:48.137Z,84.26
2023-04-20T16:03:16.550Z,87.59
2023-04-20T16:05:46.671Z,85.98
2023-04-20T16:08:15.445Z,86.90
2023-04-20T16:10:43.441Z,87.21
2023-04-20T16:13:11.887Z,87.60
2023-04-20T16:15:40.149Z,86.44
2023-04-20T16:18:17.996Z,85.52
2023-04-20T16:20:47.374Z,88.27
2023-04-20T16:23:15.997Z,87.60
2023-04-20T16:25:45.214Z,86.13
2023-04-20T16:28:15.681Z,87.16
2023-04-20T16:30:48.212Z,87.48
2023-04-20T16:33:20.749Z,85.84
2023-04-20T16:35:51.166Z,85.55
2023-04-20T16:38:22.109Z,84.45
2023-04-20T16:41:02.083Z,82.67
2023-04-20T16:43:30.133Z,84.12
2023-04-20T16:46:01.036Z,82.55
2023-04-20T16:48:29.021Z,82.00
2023-04-20T16:50:59.352Z,81.65
2023-04-20T16:53:28.525Z,83.28
2023-04-20T16:55:56.821Z,82.52
2023-04-20T16:58:25.054Z,82.06
2023-04-20T17:00:53.598Z,82.18
2023-04-20T17:03:23.544Z,81.54
2023-04-20T17:05:52.720Z,81.19
2023-04-20T17:08:23.286Z,81.76
2023-04-20T17:10:52.959Z,82.14
2023-04-20T17:13:22.201Z,81.86
2023-04-20T17:15:50.251Z,81.86
2023-04-20T17:18:20.062Z,85.43
2023-04-20T17:20:49.049Z,86.30
2023-04-20T17:23:18.465Z,87.04
2023-04-20T17:25:50.555Z,89.05
2023-04-20T17:28:20.258Z,89.81
2023-04-20T17:30:48.859Z,89.66
2023-04-20T17:33:17.721Z,88.28
2023-04-20T17:35:49.098Z,87.73
2023-04-20T17:38:17.305Z,87.65
2023-04-20T17:40:46.152Z,89.57
2023-04-20T17:43:16.689Z,88.25
2023-04-20T17:45:48.307Z,88.71
2023-04-20T17:48:17.413Z,89.59
2023-04-20T17:50:49.294Z,87.90
2023-04-20T17:53:18.409Z,87.67
2023-04-20T17:55:46.393Z,87.66
2023-04-20T17:58:14.462Z,87.19
2023-04-20T18:00:43.974Z,87.03
2023-04-20T18:03:14.850Z,87.63
2023-04-20T18:05:44.551Z,86.95
2023-04-20T18:08:13.365Z,86.98
2023-04-20T18:10:41.278Z,88.19
2023-04-20T18:13:10.420Z,90.56
2023-04-20T18:19:52.717Z,90.20
2023-04-20T18:22:20.961Z,91.69
2023-04-20T18:24:48.925Z,92.63
2023-04-20T18:27:17.158Z,92.69
2023-04-20T18:29:45.209Z,93.34
2023-04-20T18:32:16.311Z,92.02
2023-04-20T18:34:44.575Z,91.62
2023-04-20T18:37:14.418Z,89.95
2023-04-20T18:39:42.792Z,92.73
2023-04-20T18:42:11.095Z,92.70
2023-04-20T18:44:40.796Z,91.06
2023-04-20T18:47:09.293Z,89.72
2023-04-20T18:49:37.284Z,88.07
2023-04-20T18:52:05.820Z,88.21
2023-04-20T18:54:38.629Z,87.04
2023-04-20T18:57:07.986Z,86.17
2023-04-20T18:59:36.201Z,86.35
2023-04-20T19:02:04.299Z,86.03
2023-04-20T19:04:35.478Z,85.68
2023-04-20T19:07:03.508Z,85.90
2023-04-20T19:09:31.577Z,85.97
2023-04-20T19:12:01.453Z,85.50
2023-04-20T19:14:29.373Z,85.14
2023-04-20T19:16:57.728Z,83.53
2023-04-20T19:19:28.518Z,84.34
2023-04-20T19:21:57.799Z,86.24
2023-04-20T19:24:26.185Z,85.54
2023-04-20T19:26:54.251Z,84.89
2023-04-20T19:29:23.734Z,84.43
2023-04-20T19:32:03.396Z,84.27
2023-04-20T19:34:31.364Z,84.96
2023-04-20T19:36:59.810Z,86.17
2023-04-20T19:39:29.518Z,85.45
2023-04-20T19:41:57.796Z,85.08
2023-04-20T19:44:28.130Z,85.19
2023-04-20T19:46:56.205Z,85.38
2023-04-20T19:49:24.147Z,88.54
2023-04-20T19:51:52.171Z,89.73
2023-04-20T19:54:20.119Z,90.80
2023-04-20T19:56:48.214Z,89.26
2023-04-20T19:59:16.527Z,88.23
2023-04-20T20:01:47.145Z,88.32
2023-04-20T20:04:20.492Z,88.75
2023-04-20T20:06:50.660Z,88.28
2023-04-20T20:09:23.188Z,88.99
2023-04-20T20:11:54.885Z,88.11
2023-04-20T20:14:23.310Z,87.98
2023-04-20T20:16:53.147Z,86.91
2023-04-20T20:19:21.848Z,87.05
2023-04-20T20:21:50.722Z,86.46
2023-04-20T20:24:19.356Z,85.88
2023-04-20T20:26:48.112Z,86.38
2023-04-20T20:29:16.229Z,86.76
2023-04-20T20:31:44.817Z,87.65
2023-04-20T20:34:14.538Z,87.30
2023-04-20T20:36:44.719Z,87.95
2023-04-20T20:39:13.783Z,89.55
2023-04-20T20:41:42.853Z,90.17
2023-04-20T20:44:11.301Z,90.54
2023-04-20T20:46:40.549Z,91.94
2023-04-20T20:49:09.451Z,91.44
2023-04-20T20:51:39.013Z,90.61
2023-04-20T20:54:07.093Z,90.48
2023-04-20T20:56:35.567Z,90.79
2023-04-20T20:59:06.287Z,90.57
2023-04-20T21:01:34.336Z,90.19
2023-04-20T21:04:03.876Z,89.09
2023-04-20T21:06:33.236Z,89.42
2023-04-20T21:09:02.832Z,91.39
2023-04-20T21:11:30.905Z,92.57
2023-04-20T21:14:01.637Z,95.03
2023-04-20T21:16:30.192Z,96.06
2023-04-20T21:18:59.636Z,94.90
2023-04-20T21:21:27.705Z,96.19
2023-04-20T21:23:56.158Z,97.24
2023-04-20T21:26:25.486Z,97.27
2023-04-20T21:28:53.424Z,96.36
2023-04-20T21:31:21.326Z,98.57
2023-04-20T21:33:49.239Z,100.00
2023-04-20T21:36:17.231Z,99.99
2023-04-20T21:38:45.498Z,100.00
2023-04-20T21:41:13.436Z,100.00
2023-04-20T21:43:43.643Z,99.71
2023-04-20T21:46:15.298Z,100.00
2023-04-20T21:48:44.118Z,99.15
2023-04-20T21:51:19.386Z,100.00
2023-04-20T21:53:47.552Z,100.00
2023-04-20T21:56:16.286Z,100.00
2023-04-20T21:58:45.695Z,100.00
2023-04-20T22:01:13.597Z,100.00
2023-04-20T22:03:41.846Z,99.15
2023-04-20T22:06:12.777Z,100.00
2023-04-20T22:08:41.262Z,99.98
2023-04-20T22:11:09.219Z,100.00
2023-04-20T22:13:38.003Z,99.02
2023-04-20T22:16:08.229Z,98.94
2023-04-20T22:18:36.407Z,98.90
2023-04-20T22:21:04.699Z,97.75
2023-04-20T22:23:32.861Z,96.13
2023-04-20T22:26:01.057Z,95.53
2023-04-20T22:28:29.017Z,94.16
2023-04-20T22:30:57.269Z,94.26
2023-04-20T22:33:26.714Z,92.93
2023-04-20T22:35:54.969Z,92.75
2023-04-20T22:38:22.843Z,93.21
2023-04-20T22:40:51.324Z,92.42
2023-04-20T22:43:20.392Z,91.94
2023-04-20T22:45:48.914Z,91.27
2023-04-20T22:48:17.555Z,90.65
2023-04-20T22:50:47.113Z,90.32
2023-04-20T22:53:15.466Z,90.01
2023-04-20T22:55:43.578Z,89.70
2023-04-20T22:58:11.715Z,90.35
2023-04-20T23:00:39.717Z,90.38
2023-04-20T23:03:08.008Z,89.40
2023-04-20T23:05:36.882Z,90.92
2023-04-20T23:08:06.742Z,92.15
2023-04-20T23:10:34.881Z,92.70
2023-04-20T23:13:05.050Z,93.76
2023-04-20T23:15:33.075Z,93.69
2023-04-20T23:18:01.230Z,93.88
2023-04-20T23:20:31.515Z,95.11
2023-04-20T23:22:59.599Z,96.08
2023-04-20T23:25:29.083Z,96.56
2023-04-20T23:27:57.018Z,95.75
2023-04-20T23:30:25.028Z,95.15
2023-04-20T23:32:53.396Z,94.45
2023-04-20T23:35:21.438Z,93.50
2023-04-20T23:37:49.715Z,92.35
2023-04-20T23:40:18.125Z,90.57
2023-04-20T23:42:47.971Z,90.44
2023-04-20T23:45:16.177Z,91.04
2023-04-20T23:47:44.616Z,92.66
2023-04-20T23:50:12.858Z,92.49
2023-04-20T23:52:41.447Z,93.54
2023-04-20T23:55:10.815Z,92.62
2023-04-20T23:57:38.704Z,90.67
